Time;durP1;ratioP1;P1;durP2;ratioP2;P2;SDS_P1;SDS_P2;PMS_P1;PMS_P2;Temp;Humidity;BMP_temperature;BMP_pressure;BME280_temperature;BME280_humidity;BME280_pressure;Samples;Min_cycle;Max_cycle;Signal;HPM_P1;HPM_P2
2023/10/09 00:02:25;;;;;;;58.60;3.67;;;;;;;;;;5055222;28;20550;-73
2023/10/09 00:04:52;;;;;;;57.00;3.03;;;;;;;;;;5055003;28;20452;-72
2023/10/09 00:07:23;;;;;;;56.67;2.60;;;;;;;;;;5055105;28;20458;-73
2023/10/09 00:09:50;;;;;;;57.27;2.90;;;;;;;;;;5055132;28;20468;-73
2023/10/09 00:12:23;;;;;;;56.87;3.10;;;;;;;;;;5054909;28;20936;-72
2023/10/09 00:14:55;;;;;;;58.33;3.93;;;;;;;;;;5055201;28;20487;-73
2023/10/09 00:17:23;;;;;;;57.97;3.40;;;;;;;;;;5055321;28;20498;-73
2023/10/09 00:19:51;;;;;;;57.70;3.10;;;;;;;;;;5054880;28;20479;-73
2023/10/09 00:22:28;;;;;;;56.47;2.53;;;;;;;;;;5054719;28;20487;-73
2023/10/09 00:27:50;;;;;;;56.97;3.13;;;;;;;;;;5109383;27;20523;-73
2023/10/09 00:30:21;;;;;;;56.70;3.00;;;;;;;;;;5089146;28;20893;-73
2023/10/09 00:32:59;;;;;;;57.17;3.07;;;;;;;;;;5088773;28;20451;-73
2023/10/09 00:35:46;;;;;;;56.57;2.60;;;;;;;;;;5089279;28;20443;-73
2023/10/09 00:38:23;;;;;;;57.03;2.70;;;;;;;;;;5089285;28;20471;-73
2023/10/09 00:40:57;;;;;;;56.77;2.63;;;;;;;;;;5089174;28;20524;-73
2023/10/09 00:43:28;;;;;;;59.23;3.87;;;;;;;;;;5088935;28;20446;-73
2023/10/09 00:45:56;;;;;;;56.70;2.60;;;;;;;;;;5088195;28;20622;-73
2023/10/09 00:48:31;;;;;;;56.57;2.60;;;;;;;;;;5088016;28;20465;-73
2023/10/09 00:51:00;;;;;;;56.80;2.70;;;;;;;;;;5088140;28;20488;-73
2023/10/09 00:53:32;;;;;;;56.70;2.60;;;;;;;;;;5087238;28;20861;-73
2023/10/09 00:56:11;;;;;;;57.03;2.93;;;;;;;;;;5087187;28;20442;-73
2023/10/09 00:58:40;;;;;;;56.67;2.93;;;;;;;;;;5088037;28;20566;-73
2023/10/09 01:01:08;;;;;;;57.60;3.03;;;;;;;;;;5087871;28;20481;-73
2023/10/09 01:03:40;;;;;;;57.50;3.67;;;;;;;;;;5088144;28;20463;-73
2023/10/09 01:06:16;;;;;;;57.70;3.27;;;;;;;;;;5088029;28;21021;-73
2023/10/09 01:08:55;;;;;;;57.20;3.10;;;;;;;;;;5088004;28;20902;-72
2023/10/09 01:11:23;;;;;;;57.00;2.80;;;;;;;;;;5088270;28;20503;-73
2023/10/09 01:16:55;;;;;;;56.77;2.77;;;;;;;;;;5079571;28;20470;-73
2023/10/09 01:19:24;;;;;;;56.60;2.67;;;;;;;;;;5087999;28;20478;-73
2023/10/09 01:21:51;;;;;;;57.20;3.07;;;;;;;;;;5087214;28;20480;-73
2023/10/09 01:24:21;;;;;;;57.40;3.43;;;;;;;;;;5088166;28;20446;-73
2023/10/09 01:26:50;;;;;;;56.53;2.73;;;;;;;;;;5084934;28;20581;-73
2023/10/09 01:29:19;;;;;;;56.57;2.60;;;;;;;;;;5087608;28;20532;-73
2023/10/09 01:31:52;;;;;;;56.90;3.07;;;;;;;;;;5087564;28;20561;-73
2023/10/09 01:34:23;;;;;;;62.90;3.93;;;;;;;;;;5079671;28;20447;-73
2023/10/09 01:36:53;;;;;;;56.60;3.10;;;;;;;;;;5087535;28;20454;-73
2023/10/09 01:39:23;;;;;;;56.50;2.77;;;;;;;;;;5069203;28;20463;-73
2023/10/09 01:41:57;;;;;;;57.50;2.70;;;;;;;;;;5073809;28;20497;-74
2023/10/09 01:44:25;;;;;;;56.87;3.17;;;;;;;;;;5074324;28;20457;-73
2023/10/09 01:46:54;;;;;;;56.40;2.80;;;;;;;;;;5073633;28;20489;-74
2023/10/09 01:49:29;;;;;;;61.10;3.17;;;;;;;;;;5073840;28;20893;-73
2023/10/09 01:51:58;;;;;;;56.83;2.93;;;;;;;;;;5073503;28;20453;-73
2023/10/09 01:54:36;;;;;;;56.50;2.73;;;;;;;;;;5073514;28;21030;-73
2023/10/09 01:57:05;;;;;;;56.27;2.70;;;;;;;;;;5073569;28;20443;-74
2023/10/09 01:59:32;;;;;;;56.70;3.10;;;;;;;;;;5069634;28;20471;-74
2023/10/09 02:02:05;;;;;;;56.60;2.40;;;;;;;;;;5073426;28;20843;-74
2023/10/09 02:04:33;;;;;;;56.27;2.50;;;;;;;;;;5073494;28;20451;-74
2023/10/09 02:07:06;;;;;;;56.67;2.60;;;;;;;;;;5073116;28;20843;-74
2023/10/09 02:09:35;;;;;;;56.90;3.17;;;;;;;;;;5073089;28;20804;-74
2023/10/09 02:12:02;;;;;;;56.67;2.70;;;;;;;;;;5073023;28;20546;-74
2023/10/09 02:14:29;;;;;;;57.00;3.43;;;;;;;;;;5073377;28;20455;-74
2023/10/09 02:17:09;;;;;;;56.90;2.93;;;;;;;;;;5073048;28;20461;-74
2023/10/09 02:19:40;;;;;;;56.67;2.73;;;;;;;;;;5073019;28;20907;-74
2023/10/09 02:22:12;;;;;;;57.30;3.57;;;;;;;;;;5073104;28;20534;-73
2023/10/09 02:24:51;;;;;;;56.80;2.50;;;;;;;;;;5072954;28;20935;-74
2023/10/09 02:27:40;;;;;;;56.47;2.53;;;;;;;;;;5064904;28;20499;-74
2023/10/09 02:30:17;;;;;;;56.70;2.70;;;;;;;;;;5072965;28;20581;-73
2023/10/09 02:32:48;;;;;;;56.70;2.90;;;;;;;;;;5072484;28;21072;-74
2023/10/09 02:35:31;;;;;;;56.57;2.73;;;;;;;;;;5072702;28;20444;-74
2023/10/09 02:37:59;;;;;;;57.57;3.10;;;;;;;;;;5072671;28;20474;-74
2023/10/09 02:40:32;;;;;;;56.47;2.50;;;;;;;;;;5072579;28;20448;-74
2023/10/09 02:43:00;;;;;;;56.70;3.17;;;;;;;;;;5072534;28;20482;-74
2023/10/09 02:45:32;;;;;;;58.60;3.97;;;;;;;;;;5072123;28;20529;-74
2023/10/09 02:48:00;;;;;;;56.80;3.20;;;;;;;;;;5072346;28;20491;-74
2023/10/09 02:50:28;;;;;;;56.30;2.60;;;;;;;;;;5071091;28;20919;-74
2023/10/09 02:53:08;;;;;;;56.87;3.17;;;;;;;;;;5072189;28;20452;-74
2023/10/09 02:55:38;;;;;;;57.17;3.07;;;;;;;;;;5069008;28;20887;-74
2023/10/09 02:58:10;;;;;;;57.07;3.00;;;;;;;;;;5072259;28;20492;-74
2023/10/09 03:00:38;;;;;;;57.00;3.43;;;;;;;;;;5067622;28;20513;-73
2023/10/09 03:03:07;;;;;;;56.47;3.20;;;;;;;;;;5072233;28;20447;-74
2023/10/09 03:05:34;;;;;;;56.40;2.50;;;;;;;;;;5072179;28;20921;-74
2023/10/09 03:08:02;;;;;;;56.40;2.40;;;;;;;;;;5071811;28;20491;-73
2023/10/09 03:10:29;;;;;;;56.20;2.33;;;;;;;;;;5068014;28;20451;-73
2023/10/09 03:13:01;;;;;;;56.60;2.73;;;;;;;;;;5072067;28;20450;-72
2023/10/09 03:15:35;;;;;;;56.60;2.63;;;;;;;;;;5072019;28;20451;-73
2023/10/09 03:18:04;;;;;;;57.20;2.77;;;;;;;;;;5071944;28;20494;-73
2023/10/09 03:20:31;;;;;;;61.23;3.90;;;;;;;;;;5071988;28;20582;-72
2023/10/09 03:23:01;;;;;;;58.30;2.93;;;;;;;;;;5071909;28;20447;-74
2023/10/09 03:25:28;;;;;;;57.37;3.70;;;;;;;;;;5072052;28;20943;-73
2023/10/09 03:27:56;;;;;;;57.40;3.47;;;;;;;;;;5071697;28;20497;-72
2023/10/09 03:30:24;;;;;;;56.27;2.33;;;;;;;;;;5071712;28;20944;-72
2023/10/09 03:32:53;;;;;;;56.80;2.90;;;;;;;;;;5071350;28;20448;-72
2023/10/09 03:35:25;;;;;;;58.50;3.30;;;;;;;;;;5071321;28;20554;-73
2023/10/09 03:37:57;;;;;;;58.07;2.83;;;;;;;;;;5071538;28;20919;-73
2023/10/09 03:40:24;;;;;;;56.37;2.80;;;;;;;;;;5064207;28;20450;-73
2023/10/09 03:42:52;;;;;;;56.87;3.13;;;;;;;;;;5071281;28;20542;-72
2023/10/09 03:45:24;;;;;;;56.30;2.40;;;;;;;;;;5071435;28;20479;-73
2023/10/09 03:47:57;;;;;;;58.73;2.67;;;;;;;;;;5071166;28;20490;-72
2023/10/09 03:50:35;;;;;;;58.60;3.97;;;;;;;;;;5063743;28;20487;-73
2023/10/09 03:53:03;;;;;;;57.20;2.90;;;;;;;;;;5071352;28;20501;-73
2023/10/09 03:55:32;;;;;;;56.30;2.57;;;;;;;;;;5071110;28;20510;-73
2023/10/09 03:57:59;;;;;;;56.33;2.60;;;;;;;;;;5070955;28;20546;-72
2023/10/09 04:00:29;;;;;;;56.50;2.67;;;;;;;;;;5070686;28;20440;-73
2023/10/09 04:02:58;;;;;;;56.63;2.33;;;;;;;;;;5071043;28;20489;-73
2023/10/09 04:05:25;;;;;;;56.90;2.90;;;;;;;;;;5063363;28;20459;-74
2023/10/09 04:07:54;;;;;;;56.90;2.80;;;;;;;;;;5070893;28;20489;-74
2023/10/09 04:13:09;;;;;;;56.43;2.50;;;;;;;;;;5070901;28;21007;-73
2023/10/09 04:15:36;;;;;;;56.30;2.50;;;;;;;;;;5070730;28;20454;-74
2023/10/09 04:18:09;;;;;;;56.67;2.50;;;;;;;;;;5070725;28;20463;-74
2023/10/09 04:21:16;;;;;;;56.40;2.57;;;;;;;;;;5070824;28;20478;-74
2023/10/09 04:23:59;;;;;;;56.30;2.40;;;;;;;;;;5071191;28;20480;-74
2023/10/09 04:26:29;;;;;;;58.20;3.63;;;;;;;;;;5070810;28;20981;-74
2023/10/09 04:28:56;;;;;;;56.60;2.60;;;;;;;;;;5070813;28;20503;-72
2023/10/09 04:31:31;;;;;;;56.30;2.40;;;;;;;;;;5070884;28;20445;-72
2023/10/09 04:36:47;;;;;;;56.50;2.40;;;;;;;;;;5070956;28;20447;-72
2023/10/09 04:39:35;;;;;;;56.80;2.70;;;;;;;;;;5070998;28;20495;-73
2023/10/09 04:47:57;;;;;;;56.37;2.60;;;;;;;;;;5007954;28;20555;-73
2023/10/09 04:53:23;;;;;;;56.70;2.90;;;;;;;;;;5008485;28;20516;-73
2023/10/09 04:55:57;;;;;;;56.63;2.40;;;;;;;;;;5007346;28;20996;-73
2023/10/09 04:58:25;;;;;;;56.27;2.57;;;;;;;;;;5003278;28;20868;-73
2023/10/09 05:01:04;;;;;;;56.40;2.30;;;;;;;;;;5008218;28;20489;-73
2023/10/09 05:03:43;;;;;;;56.60;2.40;;;;;;;;;;5008244;28;20854;-73
2023/10/09 05:06:21;;;;;;;56.37;2.27;;;;;;;;;;5008298;28;20887;-74
2023/10/09 05:08:48;;;;;;;57.00;3.20;;;;;;;;;;5008011;28;20500;-73
2023/10/09 05:11:34;;;;;;;56.37;2.63;;;;;;;;;;5007871;28;20472;-74
2023/10/09 05:14:11;;;;;;;57.47;3.00;;;;;;;;;;5010742;28;20492;-73
2023/10/09 05:16:51;;;;;;;56.40;2.47;;;;;;;;;;5060278;28;20446;-73
2023/10/09 05:19:29;;;;;;;57.37;2.80;;;;;;;;;;5073834;28;20520;-73
2023/10/09 05:22:04;;;;;;;56.20;2.20;;;;;;;;;;5073910;28;20455;-74
2023/10/09 05:24:43;;;;;;;56.33;2.50;;;;;;;;;;5066526;28;20481;-73
2023/10/09 05:27:24;;;;;;;57.00;3.03;;;;;;;;;;5073711;28;20491;-73
2023/10/09 05:29:59;;;;;;;57.10;3.23;;;;;;;;;;5068409;28;20478;-73
2023/10/09 05:32:29;;;;;;;57.17;3.30;;;;;;;;;;5065629;28;20445;-73
2023/10/09 05:35:06;;;;;;;56.23;2.40;;;;;;;;;;5073981;28;20451;-73
2023/10/09 05:37:42;;;;;;;58.77;3.03;;;;;;;;;;5073642;28;20452;-73
2023/10/09 05:40:22;;;;;;;56.27;2.33;;;;;;;;;;5073248;28;20454;-73
2023/10/09 05:42:59;;;;;;;60.10;3.23;;;;;;;;;;5068760;28;20474;-73
2023/10/09 05:51:12;;;;;;;56.53;2.30;;;;;;;;;;5073501;28;20957;-73
2023/10/09 06:05:40;;;;;;;56.80;3.03;;;;;;;;;;5030592;28;20472;-73
2023/10/09 06:08:04;;;;;;;56.23;2.50;;;;;;;;;;5059664;28;20506;-72
2023/10/09 06:10:40;;;;;;;56.17;2.40;;;;;;;;;;5072627;28;20440;-72
2023/10/09 06:13:08;;;;;;;57.43;3.60;;;;;;;;;;5073048;28;20451;-72
2023/10/09 06:16:09;;;;;;;56.23;2.60;;;;;;;;;;5072958;28;20448;-72
2023/10/09 06:18:41;;;;;;;56.57;2.53;;;;;;;;;;5072763;28;20979;-72
2023/10/09 06:21:19;;;;;;;56.33;2.47;;;;;;;;;;5072767;28;20444;-72
2023/10/09 06:24:09;;;;;;;56.47;2.43;;;;;;;;;;5072946;28;20444;-73
2023/10/09 06:26:37;;;;;;;56.90;3.23;;;;;;;;;;5072829;28;20494;-73
2023/10/09 06:32:23;;;;;;;56.03;2.30;;;;;;;;;;5061788;28;20439;-73
2023/10/09 06:34:51;;;;;;;56.70;3.00;;;;;;;;;;5072271;28;20954;-73
2023/10/09 06:37:34;;;;;;;57.07;2.47;;;;;;;;;;5072661;28;20447;-73
2023/10/09 06:43:07;;;;;;;56.47;2.50;;;;;;;;;;5072083;28;20811;-73
2023/10/09 06:45:44;;;;;;;58.30;3.73;;;;;;;;;;5072375;28;20534;-73
2023/10/09 06:51:03;;;;;;;56.17;2.30;;;;;;;;;;5071938;28;20749;-73
2023/10/09 06:56:23;;;;;;;56.27;2.20;;;;;;;;;;5064954;28;20431;-73
2023/10/09 06:58:54;;;;;;;56.50;2.50;;;;;;;;;;5071917;28;20463;-73
2023/10/09 07:01:28;;;;;;;56.13;2.40;;;;;;;;;;5071726;28;20447;-73
2023/10/09 07:03:59;;;;;;;57.00;3.03;;;;;;;;;;5072349;28;20446;-73
2023/10/09 07:09:18;;;;;;;55.97;2.20;;;;;;;;;;5071296;28;20493;-73
2023/10/09 07:11:57;;;;;;;56.17;2.70;;;;;;;;;;5071603;28;20443;-73
2023/10/09 07:17:23;;;;;;;56.67;3.30;;;;;;;;;;5055849;28;20455;-73
2023/10/09 07:20:12;;;;;;;57.00;3.30;;;;;;;;;;5071664;28;20469;-73
2023/10/09 07:22:56;;;;;;;59.20;3.13;;;;;;;;;;5064601;28;20459;-73
2023/10/09 07:25:54;;;;;;;56.77;3.03;;;;;;;;;;5071450;28;20458;-73
2023/10/09 07:28:36;;;;;;;56.50;3.13;;;;;;;;;;5071234;28;20487;-73
2023/10/09 07:31:08;;;;;;;55.97;2.30;;;;;;;;;;5071551;28;20456;-74
2023/10/09 07:36:29;;;;;;;58.30;3.20;;;;;;;;;;5070584;28;21012;-74
2023/10/09 07:38:56;;;;;;;56.37;2.60;;;;;;;;;;5070898;28;20498;-72
2023/10/09 07:41:37;;;;;;;56.67;3.80;;;;;;;;;;5071314;28;20447;-73
2023/10/09 07:44:19;;;;;;;56.27;2.50;;;;;;;;;;5071411;28;20455;-73
2023/10/09 07:46:52;;;;;;;56.17;2.20;;;;;;;;;;5071149;28;20451;-73
2023/10/09 07:49:24;;;;;;;57.00;2.97;;;;;;;;;;5070860;28;20499;-73
2023/10/09 07:51:52;;;;;;;57.47;3.07;;;;;;;;;;5071260;28;20900;-74
2023/10/09 07:54:31;;;;;;;58.37;3.70;;;;;;;;;;5071152;28;20451;-72
2023/10/09 07:57:08;;;;;;;58.27;2.67;;;;;;;;;;5071217;28;20461;-73
2023/10/09 07:59:40;;;;;;;57.57;3.23;;;;;;;;;;5070921;28;20554;-72
2023/10/09 08:02:13;;;;;;;56.67;3.43;;;;;;;;;;5070808;28;20447;-72
2023/10/09 08:04:48;;;;;;;56.80;3.10;;;;;;;;;;5063896;28;20447;-72
2023/10/09 08:07:19;;;;;;;56.27;2.40;;;;;;;;;;5070909;28;20969;-72
2023/10/09 08:09:48;;;;;;;56.00;2.30;;;;;;;;;;5070652;28;20815;-72
2023/10/09 08:12:39;;;;;;;57.10;2.50;;;;;;;;;;5070718;28;20866;-72
2023/10/09 08:15:20;;;;;;;56.90;2.80;;;;;;;;;;5070677;28;20471;-71
2023/10/09 08:17:51;;;;;;;56.90;3.07;;;;;;;;;;5070719;28;20931;-72
2023/10/09 08:20:17;;;;;;;58.00;2.97;;;;;;;;;;5070584;28;20466;-73
2023/10/09 08:22:50;;;;;;;56.67;2.70;;;;;;;;;;5070502;28;20455;-72
2023/10/09 08:25:29;;;;;;;56.07;2.30;;;;;;;;;;5070598;28;20970;-72
2023/10/09 08:28:39;;;;;;;56.90;3.73;;;;;;;;;;5070657;28;20580;-73
2023/10/09 08:31:18;;;;;;;57.03;2.80;;;;;;;;;;5070509;28;20533;-73
2023/10/09 08:33:56;;;;;;;56.60;2.97;;;;;;;;;;5070901;28;20462;-73
2023/10/09 08:36:28;;;;;;;56.60;3.00;;;;;;;;;;5070609;28;20451;-73
2023/10/09 08:38:58;;;;;;;57.37;3.17;;;;;;;;;;5070582;28;20540;-73
2023/10/09 08:41:29;;;;;;;56.80;3.03;;;;;;;;;;5070576;28;20485;-74
2023/10/09 08:43:58;;;;;;;56.80;2.20;;;;;;;;;;5070800;28;20872;-73
2023/10/09 08:46:26;;;;;;;56.60;2.77;;;;;;;;;;5070567;28;20449;-73
2023/10/09 08:48:55;;;;;;;56.30;2.60;;;;;;;;;;5073172;28;21013;-73
2023/10/09 08:51:23;;;;;;;56.50;2.20;;;;;;;;;;5074368;28;20452;-73
2023/10/09 08:53:52;;;;;;;58.53;3.73;;;;;;;;;;5074481;28;20454;-73
2023/10/09 08:56:22;;;;;;;57.60;3.13;;;;;;;;;;5066554;28;20791;-73
2023/10/09 08:58:51;;;;;;;57.50;3.73;;;;;;;;;;5074242;28;20458;-73
2023/10/09 09:01:20;;;;;;;57.43;2.50;;;;;;;;;;5074194;28;20490;-73
2023/10/09 09:03:47;;;;;;;56.63;2.50;;;;;;;;;;5074276;28;20835;-73
2023/10/09 09:06:16;;;;;;;56.40;2.53;;;;;;;;;;5074284;28;20478;-73
2023/10/09 09:08:45;;;;;;;56.50;2.50;;;;;;;;;;5073808;28;20487;-73
2023/10/09 09:11:16;;;;;;;58.00;3.43;;;;;;;;;;5074168;28;20451;-73
2023/10/09 09:13:48;;;;;;;56.43;2.50;;;;;;;;;;5073998;28;21030;-73
2023/10/09 09:16:16;;;;;;;56.27;2.70;;;;;;;;;;5074032;28;20466;-73
2023/10/09 09:18:57;;;;;;;56.90;2.60;;;;;;;;;;5073835;28;20463;-73
2023/10/09 09:21:27;;;;;;;56.60;2.40;;;;;;;;;;5074058;28;20451;-74
2023/10/09 09:23:55;;;;;;;56.77;2.30;;;;;;;;;;5074042;28;20443;-73
2023/10/09 09:26:37;;;;;;;56.77;2.90;;;;;;;;;;5073708;28;20454;-73
2023/10/09 09:29:05;;;;;;;56.47;2.37;;;;;;;;;;5073787;28;20487;-74
2023/10/09 09:31:37;;;;;;;56.63;2.73;;;;;;;;;;5073589;28;20451;-73
2023/10/09 09:34:12;;;;;;;56.60;2.90;;;;;;;;;;5073927;28;20478;-73
2023/10/09 09:36:53;;;;;;;56.20;2.40;;;;;;;;;;5073663;28;20939;-74
2023/10/09 09:39:26;;;;;;;56.47;2.40;;;;;;;;;;5073403;28;20463;-72
2023/10/09 09:41:53;;;;;;;57.30;3.13;;;;;;;;;;5073359;28;20455;-72
2023/10/09 09:44:25;;;;;;;56.47;2.40;;;;;;;;;;5073849;28;20446;-72
2023/10/09 09:46:53;;;;;;;56.90;2.50;;;;;;;;;;5073617;28;20444;-73
2023/10/09 09:49:21;;;;;;;57.20;4.10;;;;;;;;;;5073078;28;20487;-74
2023/10/09 09:51:50;;;;;;;56.77;2.73;;;;;;;;;;5073219;28;20489;-73
2023/10/09 09:54:16;;;;;;;57.70;3.33;;;;;;;;;;5073761;28;20449;-73
2023/10/09 09:56:50;;;;;;;57.43;3.47;;;;;;;;;;5073304;28;20449;-73
2023/10/09 09:59:21;;;;;;;57.30;2.50;;;;;;;;;;5072907;28;20906;-73
2023/10/09 10:01:56;;;;;;;56.70;2.63;;;;;;;;;;5073072;28;20469;-73
2023/10/09 10:04:26;;;;;;;60.87;3.37;;;;;;;;;;5073032;28;20451;-73
2023/10/09 10:06:55;;;;;;;58.03;2.73;;;;;;;;;;5073477;28;20451;-73
2023/10/09 10:09:41;;;;;;;56.60;2.83;;;;;;;;;;5072635;28;20494;-73
2023/10/09 10:12:10;;;;;;;57.10;2.97;;;;;;;;;;5072856;28;20491;-73
2023/10/09 10:14:52;;;;;;;56.90;2.50;;;;;;;;;;5072919;28;20455;-73
2023/10/09 10:17:20;;;;;;;57.43;2.60;;;;;;;;;;5070604;28;20451;-72
2023/10/09 10:20:26;;;;;;;56.60;2.70;;;;;;;;;;5072883;28;20788;-74
2023/10/09 10:23:17;;;;;;;57.33;3.60;;;;;;;;;;5072847;28;20451;-73
2023/10/09 10:25:49;;;;;;;57.00;2.83;;;;;;;;;;5072491;28;20546;-73
2023/10/09 10:28:28;;;;;;;58.67;3.33;;;;;;;;;;5072681;28;20471;-73
2023/10/09 10:30:55;;;;;;;57.60;2.33;;;;;;;;;;5072816;28;20513;-73
2023/10/09 10:33:24;;;;;;;57.23;3.23;;;;;;;;;;5072517;28;20542;-73
2023/10/09 10:35:55;;;;;;;57.00;2.60;;;;;;;;;;5072578;28;20504;-74
2023/10/09 10:38:32;;;;;;;57.10;2.80;;;;;;;;;;5072305;28;20566;-73
2023/10/09 10:41:11;;;;;;;56.30;2.60;;;;;;;;;;5072646;28;20521;-73
2023/10/09 10:43:54;;;;;;;57.30;2.53;;;;;;;;;;5072510;28;20444;-74
2023/10/09 10:46:30;;;;;;;56.00;2.30;;;;;;;;;;5072264;28;20951;-74
2023/10/09 10:49:00;;;;;;;59.10;4.70;;;;;;;;;;5072348;28;20513;-73
2023/10/09 10:51:34;;;;;;;56.10;2.30;;;;;;;;;;5066792;28;20444;-74
2023/10/09 10:56:45;;;;;;;56.50;1.90;;;;;;;;;;5071269;28;20428;-74
2023/10/09 10:59:11;;;;;;;57.90;3.30;;;;;;;;;;5071779;28;20478;-74
2023/10/09 11:01:53;;;;;;;56.70;2.40;;;;;;;;;;5071616;28;20467;-74
2023/10/09 11:04:24;;;;;;;56.97;3.50;;;;;;;;;;5072020;28;20971;-74
2023/10/09 11:06:52;;;;;;;55.87;2.20;;;;;;;;;;5071977;28;20440;-74
2023/10/09 11:09:35;;;;;;;55.83;2.20;;;;;;;;;;5063056;28;20486;-74
2023/10/09 11:12:12;;;;;;;57.63;2.50;;;;;;;;;;5065767;28;20497;-73
2023/10/09 11:14:46;;;;;;;56.17;2.33;;;;;;;;;;5071721;28;20455;-74
2023/10/09 11:17:24;;;;;;;57.37;3.07;;;;;;;;;;5072051;28;20451;-74
2023/10/09 11:19:52;;;;;;;60.43;2.57;;;;;;;;;;5071331;28;20470;-74
2023/10/09 11:22:28;;;;;;;55.97;2.10;;;;;;;;;;5071367;28;20444;-73
2023/10/09 11:25:12;;;;;;;56.30;2.10;;;;;;;;;;5071796;28;20538;-73
2023/10/09 11:27:50;;;;;;;56.33;1.93;;;;;;;;;;5071285;28;20466;-74
2023/10/09 11:30:32;;;;;;;56.17;1.93;;;;;;;;;;5071135;28;20522;-74
2023/10/09 11:33:07;;;;;;;57.50;2.43;;;;;;;;;;5071414;28;20819;-74
2023/10/09 11:35:35;;;;;;;55.93;1.90;;;;;;;;;;5071484;28;20451;-74
2023/10/09 11:38:20;;;;;;;57.40;2.10;;;;;;;;;;5071197;28;21045;-75
2023/10/09 11:41:05;;;;;;;56.07;2.63;;;;;;;;;;5071191;28;20439;-73
2023/10/09 11:43:51;;;;;;;56.20;1.97;;;;;;;;;;5071284;28;20452;-74
2023/10/09 11:54:49;;;;;;;56.43;2.20;;;;;;;;;;5062010;28;20508;-73
2023/10/09 11:57:18;;;;;;;58.13;4.07;;;;;;;;;;5070859;28;20448;-73
2023/10/09 11:59:45;;;;;;;56.40;2.67;;;;;;;;;;5070930;28;20491;-74
2023/10/09 12:02:12;;;;;;;56.47;2.20;;;;;;;;;;5071044;28;20538;-73
2023/10/09 12:04:41;;;;;;;56.43;2.50;;;;;;;;;;5070788;28;20456;-73
2023/10/09 12:07:09;;;;;;;56.10;2.00;;;;;;;;;;5070972;28;20494;-73
2023/10/09 12:09:37;;;;;;;57.30;2.80;;;;;;;;;;5070570;28;20940;-73
2023/10/09 12:12:04;;;;;;;56.70;2.20;;;;;;;;;;5070545;28;20509;-73
2023/10/09 12:14:34;;;;;;;57.57;2.10;;;;;;;;;;5070903;28;20482;-73
2023/10/09 12:17:05;;;;;;;56.77;2.67;;;;;;;;;;5070857;28;20478;-73
2023/10/09 12:19:33;;;;;;;57.90;1.90;;;;;;;;;;5070971;28;20835;-73
2023/10/09 12:22:01;;;;;;;55.80;2.17;;;;;;;;;;5070556;28;20448;-74
2023/10/09 12:24:28;;;;;;;56.10;2.20;;;;;;;;;;5070434;28;20459;-74
2023/10/09 12:26:56;;;;;;;56.60;2.30;;;;;;;;;;5070501;28;20487;-75
2023/10/09 12:29:23;;;;;;;55.83;2.60;;;;;;;;;;5070674;28;20464;-74
2023/10/09 12:31:58;;;;;;;58.10;2.37;;;;;;;;;;5070599;28;20534;-75
2023/10/09 12:34:26;;;;;;;56.43;2.00;;;;;;;;;;5070524;28;20454;-75
2023/10/09 12:36:53;;;;;;;56.60;3.10;;;;;;;;;;5070499;28;20443;-73
2023/10/09 12:39:21;;;;;;;56.27;2.30;;;;;;;;;;5070566;28;20498;-73
2023/10/09 12:41:53;;;;;;;55.97;1.97;;;;;;;;;;5070649;28;20501;-74
2023/10/09 12:44:20;;;;;;;56.60;2.40;;;;;;;;;;5070640;28;20466;-73
2023/10/09 12:46:52;;;;;;;56.43;1.83;;;;;;;;;;5062164;28;20505;-73
2023/10/09 12:49:25;;;;;;;56.20;2.10;;;;;;;;;;5070370;28;20464;-73
2023/10/09 12:51:52;;;;;;;55.57;1.80;;;;;;;;;;5070585;28;20443;-74
2023/10/09 12:54:24;;;;;;;55.90;1.93;;;;;;;;;;5069404;28;20448;-73
2023/10/09 12:56:53;;;;;;;56.20;2.20;;;;;;;;;;5063082;28;20898;-73
2023/10/09 12:59:21;;;;;;;57.47;1.80;;;;;;;;;;5070104;28;20490;-73
2023/10/09 13:01:52;;;;;;;56.00;2.40;;;;;;;;;;5058730;28;20827;-74
2023/10/09 13:04:22;;;;;;;55.57;1.90;;;;;;;;;;5058103;28;20440;-72
2023/10/09 13:06:53;;;;;;;56.40;2.33;;;;;;;;;;5070372;28;20501;-73
2023/10/09 13:09:25;;;;;;;56.63;2.47;;;;;;;;;;5070129;28;20502;-73
2023/10/09 13:11:52;;;;;;;57.17;2.40;;;;;;;;;;5058589;28;20443;-73
2023/10/09 13:14:21;;;;;;;57.07;2.37;;;;;;;;;;5057880;28;20444;-73
2023/10/09 13:16:50;;;;;;;56.10;2.17;;;;;;;;;;5058554;28;20469;-74
2023/10/09 13:19:17;;;;;;;56.50;2.00;;;;;;;;;;5065410;28;20484;-74
2023/10/09 13:21:44;;;;;;;59.60;3.60;;;;;;;;;;5069866;28;20959;-73
2023/10/09 13:24:15;;;;;;;56.70;2.53;;;;;;;;;;5061916;28;20473;-73
2023/10/09 13:26:44;;;;;;;56.77;2.93;;;;;;;;;;5069877;28;20573;-74
2023/10/09 13:29:12;;;;;;;57.30;2.03;;;;;;;;;;5069882;28;20474;-74
2023/10/09 13:31:40;;;;;;;55.23;1.90;;;;;;;;;;5069946;28;20455;-74
2023/10/09 13:34:09;;;;;;;55.13;1.87;;;;;;;;;;5071544;28;20454;-74
2023/10/09 13:36:37;;;;;;;56.40;2.10;;;;;;;;;;5073644;28;20840;-74
2023/10/09 13:41:47;;;;;;;55.57;2.37;;;;;;;;;;5073238;28;20446;-74
2023/10/09 13:44:14;;;;;;;56.00;2.63;;;;;;;;;;5073691;28;20440;-74
2023/10/09 13:46:42;;;;;;;55.40;2.43;;;;;;;;;;5073536;28;20829;-74
2023/10/09 13:49:12;;;;;;;55.10;2.20;;;;;;;;;;5073209;28;20823;-74
2023/10/09 13:51:43;;;;;;;56.10;3.13;;;;;;;;;;5073312;28;20454;-72
2023/10/09 13:54:10;;;;;;;61.17;4.07;;;;;;;;;;5073286;28;20534;-74
2023/10/09 13:56:39;;;;;;;62.53;3.83;;;;;;;;;;5073096;28;20501;-74
2023/10/09 13:59:10;;;;;;;55.50;1.73;;;;;;;;;;5073144;28;20467;-75
2023/10/09 14:01:38;;;;;;;55.70;2.20;;;;;;;;;;5073141;28;20452;-73
2023/10/09 14:04:07;;;;;;;55.87;2.30;;;;;;;;;;5073183;28;20483;-74
2023/10/09 14:06:35;;;;;;;57.33;4.13;;;;;;;;;;5072880;28;20446;-74
2023/10/09 14:09:04;;;;;;;55.30;2.17;;;;;;;;;;5072991;28;20563;-73
2023/10/09 14:11:32;;;;;;;55.33;2.30;;;;;;;;;;5072809;28;21095;-74
2023/10/09 14:14:00;;;;;;;56.87;2.30;;;;;;;;;;5072981;28;20448;-74
2023/10/09 14:16:32;;;;;;;55.77;2.00;;;;;;;;;;5072846;28;20447;-74
2023/10/09 14:19:00;;;;;;;56.70;3.33;;;;;;;;;;5072702;28;20558;-73
2023/10/09 14:21:30;;;;;;;57.30;2.37;;;;;;;;;;5069193;28;20488;-74
2023/10/09 14:23:57;;;;;;;55.80;2.10;;;;;;;;;;5068055;28;20456;-74
2023/10/09 14:26:26;;;;;;;56.37;2.60;;;;;;;;;;5072540;28;20452;-74
2023/10/09 14:28:53;;;;;;;56.67;2.73;;;;;;;;;;5072345;28;20971;-74
2023/10/09 14:31:26;;;;;;;57.30;3.20;;;;;;;;;;5072954;28;20440;-74
2023/10/09 14:33:54;;;;;;;57.90;2.50;;;;;;;;;;5072707;28;20537;-74
2023/10/09 14:36:22;;;;;;;56.20;2.40;;;;;;;;;;5072478;28;20450;-74
2023/10/09 14:38:52;;;;;;;59.10;5.57;;;;;;;;;;5072263;28;20464;-74
2023/10/09 14:41:21;;;;;;;56.83;2.60;;;;;;;;;;5072332;28;21043;-73
2023/10/09 14:43:49;;;;;;;56.10;2.30;;;;;;;;;;5071929;28;20851;-74
2023/10/09 14:46:16;;;;;;;56.67;2.60;;;;;;;;;;5072054;28;20478;-73
2023/10/09 14:48:45;;;;;;;56.40;2.10;;;;;;;;;;5072044;28;20471;-73
2023/10/09 14:51:14;;;;;;;56.20;2.47;;;;;;;;;;5072186;28;20478;-73
2023/10/09 14:53:41;;;;;;;55.87;2.37;;;;;;;;;;5072540;28;20535;-74
2023/10/09 14:56:09;;;;;;;57.33;2.77;;;;;;;;;;5072124;28;20448;-73
2023/10/09 14:58:38;;;;;;;57.27;2.40;;;;;;;;;;5071827;28;20470;-73
2023/10/09 15:01:12;;;;;;;56.97;2.60;;;;;;;;;;5072046;28;20490;-73
2023/10/09 15:03:39;;;;;;;58.20;3.27;;;;;;;;;;5071882;28;20992;-73
2023/10/09 15:06:10;;;;;;;56.17;3.30;;;;;;;;;;5071852;28;20535;-74
2023/10/09 15:08:39;;;;;;;56.87;3.20;;;;;;;;;;5071677;28;20479;-74
2023/10/09 15:11:07;;;;;;;56.80;2.40;;;;;;;;;;5071631;28;20448;-74
2023/10/09 15:13:34;;;;;;;57.30;3.77;;;;;;;;;;5071971;28;20811;-74
2023/10/09 15:16:03;;;;;;;57.97;2.57;;;;;;;;;;5071808;28;20819;-74
2023/10/09 15:18:33;;;;;;;58.37;3.33;;;;;;;;;;5071378;28;20474;-74
2023/10/09 15:21:00;;;;;;;56.50;2.60;;;;;;;;;;5071528;28;20495;-74
2023/10/09 15:23:27;;;;;;;57.80;2.40;;;;;;;;;;5072186;28;20444;-74
2023/10/09 15:25:55;;;;;;;57.77;2.43;;;;;;;;;;5071178;28;20451;-74
2023/10/09 15:28:23;;;;;;;56.80;2.00;;;;;;;;;;5071648;28;20486;-74
2023/10/09 15:30:50;;;;;;;58.03;3.47;;;;;;;;;;5071371;28;20479;-74
2023/10/09 15:33:18;;;;;;;58.97;2.90;;;;;;;;;;5071536;28;20451;-74
2023/10/09 15:35:46;;;;;;;58.10;2.83;;;;;;;;;;5071418;28;20470;-74
2023/10/09 15:38:15;;;;;;;58.20;2.40;;;;;;;;;;5071015;28;20471;-72
2023/10/09 15:40:43;;;;;;;57.03;2.87;;;;;;;;;;5071037;28;20930;-73
2023/10/09 15:43:14;;;;;;;57.67;2.90;;;;;;;;;;5071165;28;20939;-73
2023/10/09 15:45:47;;;;;;;57.70;3.90;;;;;;;;;;5071030;28;20459;-73
2023/10/09 15:48:15;;;;;;;56.70;2.97;;;;;;;;;;5071083;28;20856;-72
2023/10/09 15:50:48;;;;;;;57.47;3.23;;;;;;;;;;5070864;28;20810;-73
2023/10/09 15:53:16;;;;;;;56.47;2.07;;;;;;;;;;5071098;28;20526;-73
2023/10/09 15:55:43;;;;;;;57.47;2.63;;;;;;;;;;5071050;28;20451;-73
2023/10/09 15:58:12;;;;;;;56.90;2.50;;;;;;;;;;5070437;28;21009;-73
2023/10/09 16:00:39;;;;;;;56.70;2.67;;;;;;;;;;5070709;28;20723;-73
2023/10/09 16:03:09;;;;;;;56.57;2.30;;;;;;;;;;5070833;28;20450;-74
2023/10/09 16:05:36;;;;;;;56.50;2.30;;;;;;;;;;5070966;28;20467;-74
2023/10/09 16:08:04;;;;;;;56.60;2.30;;;;;;;;;;5070929;28;20467;-74
2023/10/09 16:10:32;;;;;;;56.07;2.00;;;;;;;;;;5070755;28;20920;-74
2023/10/09 16:13:00;;;;;;;57.73;2.70;;;;;;;;;;5070998;28;20546;-74